Strona główna
Zdjęcia satelitarne 15-dni prognozyKlimatMeteorologia morska Cyklony Błyskawica LotniskoFAQ Gazetka O
Pogoda : Europa Afryka Ameryka Północna Ameryka Południowa Azja Australia-Oceania Inny
Języki Kontakt

Katowice, Polska

Pyrzowice

Szerokość geograficzna: 50-28-27N, Długość geograficzna: 019-04-48E, wysokość: 284 m


METAR: EPKT 240630Z 07007KT 4000 BR SCT003 BKN005 01/01 Q1024
TAF: EPKT 240530Z 2406/2415 06010KT 4000 BR BKN003 BECMG 2406/2409 9000 NSW BKN016

czas: 09:00 (07:00 UTC)

Aktualna obserwacja pogody

Raport powstał 30 minut temu, godzina 06:30 UTC
Wiatr 7 kt od wschodnio-północny wschód
Temperatura 1°C
Wilgotność 100%
Ciśnienie 1024 hPa
Widzialność: 4000 m
Rozproszone chmury na wysokości 300 ft
Przerywane chmury na wysokości 500 ft
zamglenie

Jednostka miary

Prognoza

Raport powstał 1 godzina i 30 minut temu, godzina 05:30 UTC
Prognoza ważna od 24 godzina 06 UTC do 24 godzina 15 UTC
Wiatr 10 kt od wschodnio-północny wschód
Widzialność: 4000 m
Przerywane chmury na wysokości 300 ft
zamglenie
Stopniowe zmiany
od 24 godzina 06 UTC do 24 godzina 09 UTC
Widzialność: 9000 m
Przerywane chmury na wysokości 1600 ft
Informacje na tej stronie internetowej podlegają klauzuli o wyłączeniu odpowiedzialności
Pogoda : Europa Afryka Ameryka Północna Ameryka Południowa Azja Australia-Oceania Inny
Zdjęcia satelitarne 15-dni prognozyKlimatMeteorologia morska Cyklony Błyskawica LotniskoFAQ Języki Kontakt Gazetka O